sensor_id;sensor_type;location;lat;lon;timestamp;P1;durP1;ratioP1;P2;durP2;ratioP2
21352;SDS011;10834;52.268;6.770;2023-12-04T00:01:52;25.17;;;14.33;;
21352;SDS011;10834;52.268;6.770;2023-12-04T00:04:36;27.27;;;13.50;;
21352;SDS011;10834;52.268;6.770;2023-12-04T00:07:20;29.07;;;14.40;;
21352;SDS011;10834;52.268;6.770;2023-12-04T00:10:04;26.47;;;14.73;;
21352;SDS011;10834;52.268;6.770;2023-12-04T00:12:49;23.93;;;13.90;;
21352;SDS011;10834;52.268;6.770;2023-12-04T00:15:33;24.27;;;13.57;;
21352;SDS011;10834;52.268;6.770;2023-12-04T00:18:17;26.77;;;14.20;;
21352;SDS011;10834;52.268;6.770;2023-12-04T00:21:01;31.70;;;14.97;;
21352;SDS011;10834;52.268;6.770;2023-12-04T00:23:45;28.77;;;14.73;;
21352;SDS011;10834;52.268;6.770;2023-12-04T00:26:29;24.00;;;13.90;;
21352;SDS011;10834;52.268;6.770;2023-12-04T00:29:13;25.00;;;13.90;;
21352;SDS011;10834;52.268;6.770;2023-12-04T00:31:57;26.07;;;14.80;;
21352;SDS011;10834;52.268;6.770;2023-12-04T00:34:41;35.47;;;20.17;;
21352;SDS011;10834;52.268;6.770;2023-12-04T00:37:26;26.60;;;14.27;;
21352;SDS011;10834;52.268;6.770;2023-12-04T00:40:10;23.03;;;12.83;;
21352;SDS011;10834;52.268;6.770;2023-12-04T00:42:55;26.63;;;14.37;;
21352;SDS011;10834;52.268;6.770;2023-12-04T00:45:39;26.10;;;14.40;;
21352;SDS011;10834;52.268;6.770;2023-12-04T00:48:23;27.53;;;13.30;;
21352;SDS011;10834;52.268;6.770;2023-12-04T00:51:07;26.53;;;13.17;;
21352;SDS011;10834;52.268;6.770;2023-12-04T00:53:51;23.80;;;14.03;;
21352;SDS011;10834;52.268;6.770;2023-12-04T00:56:40;25.73;;;13.97;;
21352;SDS011;10834;52.268;6.770;2023-12-04T00:59:24;24.10;;;12.70;;
21352;SDS011;10834;52.268;6.770;2023-12-04T01:02:08;23.23;;;13.13;;
21352;SDS011;10834;52.268;6.770;2023-12-04T01:04:52;27.63;;;13.60;;
21352;SDS011;10834;52.268;6.770;2023-12-04T01:07:36;25.33;;;13.07;;
21352;SDS011;10834;52.268;6.770;2023-12-04T01:10:20;26.87;;;14.23;;
21352;SDS011;10834;52.268;6.770;2023-12-04T01:13:05;27.63;;;13.20;;
21352;SDS011;10834;52.268;6.770;2023-12-04T01:15:49;25.57;;;13.83;;
21352;SDS011;10834;52.268;6.770;2023-12-04T01:18:34;23.03;;;12.87;;
21352;SDS011;10834;52.268;6.770;2023-12-04T01:21:19;23.00;;;12.07;;
21352;SDS011;10834;52.268;6.770;2023-12-04T01:24:03;19.87;;;11.77;;
21352;SDS011;10834;52.268;6.770;2023-12-04T01:26:48;27.40;;;13.60;;
21352;SDS011;10834;52.268;6.770;2023-12-04T01:29:32;21.03;;;12.43;;
21352;SDS011;10834;52.268;6.770;2023-12-04T01:32:16;23.53;;;13.00;;
21352;SDS011;10834;52.268;6.770;2023-12-04T01:35:01;24.47;;;13.77;;
21352;SDS011;10834;52.268;6.770;2023-12-04T01:37:45;25.20;;;13.53;;
21352;SDS011;10834;52.268;6.770;2023-12-04T01:40:30;24.90;;;12.70;;
21352;SDS011;10834;52.268;6.770;2023-12-04T01:43:14;21.23;;;13.17;;
21352;SDS011;10834;52.268;6.770;2023-12-04T01:45:59;25.60;;;13.43;;
21352;SDS011;10834;52.268;6.770;2023-12-04T01:48:45;21.87;;;13.43;;
21352;SDS011;10834;52.268;6.770;2023-12-04T01:51:30;23.53;;;12.50;;
21352;SDS011;10834;52.268;6.770;2023-12-04T01:54:15;22.37;;;12.87;;
21352;SDS011;10834;52.268;6.770;2023-12-04T01:57:01;24.17;;;13.40;;
21352;SDS011;10834;52.268;6.770;2023-12-04T01:59:46;22.00;;;11.63;;
21352;SDS011;10834;52.268;6.770;2023-12-04T02:02:31;22.57;;;12.40;;
21352;SDS011;10834;52.268;6.770;2023-12-04T02:05:15;23.80;;;11.93;;
21352;SDS011;10834;52.268;6.770;2023-12-04T02:08:00;23.00;;;11.97;;
21352;SDS011;10834;52.268;6.770;2023-12-04T02:10:46;21.83;;;12.20;;
21352;SDS011;10834;52.268;6.770;2023-12-04T02:13:30;19.87;;;10.93;;
21352;SDS011;10834;52.268;6.770;2023-12-04T02:16:14;21.97;;;12.03;;
21352;SDS011;10834;52.268;6.770;2023-12-04T02:19:03;23.17;;;11.97;;
21352;SDS011;10834;52.268;6.770;2023-12-04T02:21:47;24.80;;;12.27;;
21352;SDS011;10834;52.268;6.770;2023-12-04T02:24:31;21.00;;;12.60;;
21352;SDS011;10834;52.268;6.770;2023-12-04T02:27:18;21.03;;;12.17;;
21352;SDS011;10834;52.268;6.770;2023-12-04T02:30:07;26.17;;;13.23;;
21352;SDS011;10834;52.268;6.770;2023-12-04T02:32:57;23.03;;;12.17;;
21352;SDS011;10834;52.268;6.770;2023-12-04T02:35:43;21.77;;;12.13;;
21352;SDS011;10834;52.268;6.770;2023-12-04T02:38:28;25.07;;;12.07;;
21352;SDS011;10834;52.268;6.770;2023-12-04T02:41:13;25.77;;;13.53;;
21352;SDS011;10834;52.268;6.770;2023-12-04T02:43:57;22.40;;;11.70;;
21352;SDS011;10834;52.268;6.770;2023-12-04T02:46:42;23.23;;;11.63;;
21352;SDS011;10834;52.268;6.770;2023-12-04T02:49:26;22.10;;;12.33;;
21352;SDS011;10834;52.268;6.770;2023-12-04T02:52:10;24.37;;;12.60;;
21352;SDS011;10834;52.268;6.770;2023-12-04T02:54:55;23.77;;;12.67;;
21352;SDS011;10834;52.268;6.770;2023-12-04T02:57:39;22.33;;;11.60;;
21352;SDS011;10834;52.268;6.770;2023-12-04T03:00:23;22.43;;;11.63;;
21352;SDS011;10834;52.268;6.770;2023-12-04T03:03:07;21.60;;;11.33;;
21352;SDS011;10834;52.268;6.770;2023-12-04T03:05:51;25.33;;;12.43;;
21352;SDS011;10834;52.268;6.770;2023-12-04T03:08:35;24.63;;;10.90;;
21352;SDS011;10834;52.268;6.770;2023-12-04T03:11:19;20.10;;;11.37;;
21352;SDS011;10834;52.268;6.770;2023-12-04T03:14:04;24.37;;;12.50;;
21352;SDS011;10834;52.268;6.770;2023-12-04T03:16:49;19.37;;;10.70;;
21352;SDS011;10834;52.268;6.770;2023-12-04T03:19:33;19.23;;;10.83;;
21352;SDS011;10834;52.268;6.770;2023-12-04T03:22:17;18.80;;;10.70;;
21352;SDS011;10834;52.268;6.770;2023-12-04T03:25:02;21.27;;;10.97;;
21352;SDS011;10834;52.268;6.770;2023-12-04T03:27:46;20.00;;;10.80;;
21352;SDS011;10834;52.268;6.770;2023-12-04T03:30:31;21.57;;;11.57;;
21352;SDS011;10834;52.268;6.770;2023-12-04T03:33:15;24.07;;;11.20;;
21352;SDS011;10834;52.268;6.770;2023-12-04T03:35:59;18.20;;;10.97;;
21352;SDS011;10834;52.268;6.770;2023-12-04T03:38:44;18.77;;;10.67;;
21352;SDS011;10834;52.268;6.770;2023-12-04T03:41:28;21.03;;;10.67;;
21352;SDS011;10834;52.268;6.770;2023-12-04T03:44:12;20.93;;;11.27;;
21352;SDS011;10834;52.268;6.770;2023-12-04T03:46:56;18.30;;;10.60;;
21352;SDS011;10834;52.268;6.770;2023-12-04T03:49:40;19.53;;;10.73;;
21352;SDS011;10834;52.268;6.770;2023-12-04T03:52:24;21.93;;;11.70;;
21352;SDS011;10834;52.268;6.770;2023-12-04T03:55:08;18.93;;;10.53;;
21352;SDS011;10834;52.268;6.770;2023-12-04T03:57:53;22.37;;;11.10;;
21352;SDS011;10834;52.268;6.770;2023-12-04T04:00:38;19.97;;;10.57;;
21352;SDS011;10834;52.268;6.770;2023-12-04T04:03:24;19.60;;;10.60;;
21352;SDS011;10834;52.268;6.770;2023-12-04T04:06:09;19.73;;;11.27;;
21352;SDS011;10834;52.268;6.770;2023-12-04T04:08:53;19.77;;;11.13;;
21352;SDS011;10834;52.268;6.770;2023-12-04T04:11:37;18.50;;;11.40;;
21352;SDS011;10834;52.268;6.770;2023-12-04T04:14:21;22.57;;;11.70;;
21352;SDS011;10834;52.268;6.770;2023-12-04T04:17:06;21.37;;;12.10;;
21352;SDS011;10834;52.268;6.770;2023-12-04T04:19:50;22.87;;;12.47;;
21352;SDS011;10834;52.268;6.770;2023-12-04T04:22:37;17.80;;;10.90;;
21352;SDS011;10834;52.268;6.770;2023-12-04T04:25:24;18.20;;;10.90;;
21352;SDS011;10834;52.268;6.770;2023-12-04T04:28:08;17.43;;;10.43;;
21352;SDS011;10834;52.268;6.770;2023-12-04T04:30:52;16.90;;;10.67;;
21352;SDS011;10834;52.268;6.770;2023-12-04T04:33:36;20.83;;;10.37;;
21352;SDS011;10834;52.268;6.770;2023-12-04T04:36:21;17.57;;;10.60;;
21352;SDS011;10834;52.268;6.770;2023-12-04T04:39:05;19.83;;;10.33;;
21352;SDS011;10834;52.268;6.770;2023-12-04T04:41:50;21.43;;;10.57;;
21352;SDS011;10834;52.268;6.770;2023-12-04T04:44:34;16.70;;;9.43;;
21352;SDS011;10834;52.268;6.770;2023-12-04T04:47:18;19.70;;;10.07;;
21352;SDS011;10834;52.268;6.770;2023-12-04T04:50:02;18.43;;;9.93;;
21352;SDS011;10834;52.268;6.770;2023-12-04T04:52:46;18.63;;;10.13;;
21352;SDS011;10834;52.268;6.770;2023-12-04T04:55:31;21.60;;;10.30;;
21352;SDS011;10834;52.268;6.770;2023-12-04T04:58:15;16.97;;;9.67;;
21352;SDS011;10834;52.268;6.770;2023-12-04T05:01:00;17.37;;;10.80;;
21352;SDS011;10834;52.268;6.770;2023-12-04T05:03:45;16.63;;;10.13;;
21352;SDS011;10834;52.268;6.770;2023-12-04T05:06:29;18.17;;;9.70;;
21352;SDS011;10834;52.268;6.770;2023-12-04T05:09:13;18.40;;;10.13;;
21352;SDS011;10834;52.268;6.770;2023-12-04T05:11:57;20.97;;;9.93;;
21352;SDS011;10834;52.268;6.770;2023-12-04T05:14:41;18.37;;;9.83;;
21352;SDS011;10834;52.268;6.770;2023-12-04T05:17:25;16.33;;;9.77;;
21352;SDS011;10834;52.268;6.770;2023-12-04T05:20:09;17.90;;;9.87;;
21352;SDS011;10834;52.268;6.770;2023-12-04T05:22:54;16.17;;;9.63;;
21352;SDS011;10834;52.268;6.770;2023-12-04T05:25:40;18.10;;;8.80;;
21352;SDS011;10834;52.268;6.770;2023-12-04T05:28:24;17.77;;;10.40;;
21352;SDS011;10834;52.268;6.770;2023-12-04T05:31:08;13.57;;;9.23;;
21352;SDS011;10834;52.268;6.770;2023-12-04T05:33:52;16.53;;;9.70;;
21352;SDS011;10834;52.268;6.770;2023-12-04T05:36:36;17.17;;;9.87;;
21352;SDS011;10834;52.268;6.770;2023-12-04T05:39:20;14.23;;;8.97;;
21352;SDS011;10834;52.268;6.770;2023-12-04T05:42:04;15.97;;;9.30;;
21352;SDS011;10834;52.268;6.770;2023-12-04T05:44:49;17.13;;;9.63;;
21352;SDS011;10834;52.268;6.770;2023-12-04T05:47:33;17.73;;;8.70;;
21352;SDS011;10834;52.268;6.770;2023-12-04T05:50:18;15.87;;;10.33;;
21352;SDS011;10834;52.268;6.770;2023-12-04T05:53:02;18.93;;;9.67;;
21352;SDS011;10834;52.268;6.770;2023-12-04T05:55:46;15.80;;;9.17;;
21352;SDS011;10834;52.268;6.770;2023-12-04T05:58:30;16.47;;;9.13;;
21352;SDS011;10834;52.268;6.770;2023-12-04T06:01:15;14.57;;;8.60;;
21352;SDS011;10834;52.268;6.770;2023-12-04T06:03:59;15.23;;;9.03;;
21352;SDS011;10834;52.268;6.770;2023-12-04T06:06:43;13.43;;;8.67;;
21352;SDS011;10834;52.268;6.770;2023-12-04T06:09:27;14.83;;;8.83;;
21352;SDS011;10834;52.268;6.770;2023-12-04T06:12:11;14.57;;;8.73;;
21352;SDS011;10834;52.268;6.770;2023-12-04T06:14:56;14.10;;;8.27;;
21352;SDS011;10834;52.268;6.770;2023-12-04T06:17:41;15.20;;;8.17;;
21352;SDS011;10834;52.268;6.770;2023-12-04T06:20:25;15.60;;;8.73;;
21352;SDS011;10834;52.268;6.770;2023-12-04T06:23:10;14.57;;;8.30;;
21352;SDS011;10834;52.268;6.770;2023-12-04T06:25:54;13.80;;;8.70;;
21352;SDS011;10834;52.268;6.770;2023-12-04T06:28:39;12.67;;;8.00;;
21352;SDS011;10834;52.268;6.770;2023-12-04T06:31:23;13.87;;;8.03;;
21352;SDS011;10834;52.268;6.770;2023-12-04T06:34:07;12.37;;;7.43;;
21352;SDS011;10834;52.268;6.770;2023-12-04T06:36:52;15.17;;;8.90;;
21352;SDS011;10834;52.268;6.770;2023-12-04T06:39:39;16.30;;;8.60;;
21352;SDS011;10834;52.268;6.770;2023-12-04T06:42:23;18.67;;;8.17;;
21352;SDS011;10834;52.268;6.770;2023-12-04T06:45:08;13.77;;;8.03;;
21352;SDS011;10834;52.268;6.770;2023-12-04T06:47:53;13.30;;;6.80;;
21352;SDS011;10834;52.268;6.770;2023-12-04T06:50:38;13.77;;;7.80;;
21352;SDS011;10834;52.268;6.770;2023-12-04T06:53:23;12.83;;;7.47;;
21352;SDS011;10834;52.268;6.770;2023-12-04T06:56:07;11.63;;;7.27;;
21352;SDS011;10834;52.268;6.770;2023-12-04T06:58:53;12.60;;;7.87;;
21352;SDS011;10834;52.268;6.770;2023-12-04T07:01:37;10.70;;;6.53;;
21352;SDS011;10834;52.268;6.770;2023-12-04T07:04:21;9.77;;;6.63;;
21352;SDS011;10834;52.268;6.770;2023-12-04T07:07:06;8.80;;;6.30;;
21352;SDS011;10834;52.268;6.770;2023-12-04T07:09:50;12.70;;;7.40;;
21352;SDS011;10834;52.268;6.770;2023-12-04T07:12:34;11.27;;;7.00;;
21352;SDS011;10834;52.268;6.770;2023-12-04T07:15:19;10.53;;;6.90;;
21352;SDS011;10834;52.268;6.770;2023-12-04T07:18:03;11.77;;;6.77;;
21352;SDS011;10834;52.268;6.770;2023-12-04T07:20:47;12.20;;;6.63;;
21352;SDS011;10834;52.268;6.770;2023-12-04T07:23:31;10.50;;;7.27;;
21352;SDS011;10834;52.268;6.770;2023-12-04T07:26:15;10.17;;;5.87;;
21352;SDS011;10834;52.268;6.770;2023-12-04T07:29:00;12.03;;;6.70;;
21352;SDS011;10834;52.268;6.770;2023-12-04T07:31:44;10.87;;;5.97;;
21352;SDS011;10834;52.268;6.770;2023-12-04T07:34:28;10.17;;;6.20;;
21352;SDS011;10834;52.268;6.770;2023-12-04T07:37:13;11.57;;;6.73;;
21352;SDS011;10834;52.268;6.770;2023-12-04T07:39:57;12.77;;;6.03;;
21352;SDS011;10834;52.268;6.770;2023-12-04T07:42:41;11.70;;;7.33;;
21352;SDS011;10834;52.268;6.770;2023-12-04T07:45:26;7.63;;;5.70;;
21352;SDS011;10834;52.268;6.770;2023-12-04T07:48:10;10.93;;;6.00;;
21352;SDS011;10834;52.268;6.770;2023-12-04T07:50:55;11.87;;;6.60;;
21352;SDS011;10834;52.268;6.770;2023-12-04T07:53:39;11.87;;;6.33;;
21352;SDS011;10834;52.268;6.770;2023-12-04T07:56:23;11.40;;;6.87;;
21352;SDS011;10834;52.268;6.770;2023-12-04T07:59:08;9.83;;;5.80;;
21352;SDS011;10834;52.268;6.770;2023-12-04T08:01:53;10.73;;;5.87;;
21352;SDS011;10834;52.268;6.770;2023-12-04T08:04:38;8.13;;;5.27;;
21352;SDS011;10834;52.268;6.770;2023-12-04T08:07:22;8.90;;;5.77;;
21352;SDS011;10834;52.268;6.770;2023-12-04T08:10:06;7.00;;;5.60;;
21352;SDS011;10834;52.268;6.770;2023-12-04T08:12:50;10.30;;;6.07;;
21352;SDS011;10834;52.268;6.770;2023-12-04T08:15:35;9.37;;;5.80;;
21352;SDS011;10834;52.268;6.770;2023-12-04T08:18:19;13.53;;;6.07;;
21352;SDS011;10834;52.268;6.770;2023-12-04T08:21:03;14.10;;;6.07;;
21352;SDS011;10834;52.268;6.770;2023-12-04T08:23:47;8.43;;;5.57;;
21352;SDS011;10834;52.268;6.770;2023-12-04T08:26:31;8.13;;;5.30;;
21352;SDS011;10834;52.268;6.770;2023-12-04T08:29:15;10.00;;;5.40;;
21352;SDS011;10834;52.268;6.770;2023-12-04T08:32:00;10.40;;;6.13;;
21352;SDS011;10834;52.268;6.770;2023-12-04T08:34:45;10.87;;;6.03;;
21352;SDS011;10834;52.268;6.770;2023-12-04T08:37:29;10.30;;;6.10;;
21352;SDS011;10834;52.268;6.770;2023-12-04T08:40:14;7.17;;;5.27;;
21352;SDS011;10834;52.268;6.770;2023-12-04T08:42:58;13.53;;;6.33;;
21352;SDS011;10834;52.268;6.770;2023-12-04T08:45:42;10.67;;;7.13;;
21352;SDS011;10834;52.268;6.770;2023-12-04T08:48:26;8.10;;;5.57;;
21352;SDS011;10834;52.268;6.770;2023-12-04T08:51:17;9.70;;;6.47;;
21352;SDS011;10834;52.268;6.770;2023-12-04T08:54:01;9.23;;;5.83;;
21352;SDS011;10834;52.268;6.770;2023-12-04T08:56:46;9.40;;;5.70;;
21352;SDS011;10834;52.268;6.770;2023-12-04T08:59:30;7.70;;;5.23;;
21352;SDS011;10834;52.268;6.770;2023-12-04T09:02:14;7.63;;;5.60;;
21352;SDS011;10834;52.268;6.770;2023-12-04T09:04:58;7.20;;;4.97;;
21352;SDS011;10834;52.268;6.770;2023-12-04T09:07:43;9.33;;;5.20;;
21352;SDS011;10834;52.268;6.770;2023-12-04T09:10:27;7.77;;;5.73;;
21352;SDS011;10834;52.268;6.770;2023-12-04T09:13:11;7.67;;;4.80;;
21352;SDS011;10834;52.268;6.770;2023-12-04T09:15:55;6.90;;;4.60;;
21352;SDS011;10834;52.268;6.770;2023-12-04T09:18:39;9.67;;;5.33;;
21352;SDS011;10834;52.268;6.770;2023-12-04T09:21:23;7.80;;;4.93;;
21352;SDS011;10834;52.268;6.770;2023-12-04T09:24:08;7.07;;;4.47;;
21352;SDS011;10834;52.268;6.770;2023-12-04T09:26:52;8.73;;;4.73;;
21352;SDS011;10834;52.268;6.770;2023-12-04T09:29:36;6.17;;;4.70;;
21352;SDS011;10834;52.268;6.770;2023-12-04T09:32:21;6.80;;;4.90;;
21352;SDS011;10834;52.268;6.770;2023-12-04T09:35:05;9.60;;;4.43;;
21352;SDS011;10834;52.268;6.770;2023-12-04T09:37:49;7.23;;;4.83;;
21352;SDS011;10834;52.268;6.770;2023-12-04T09:40:34;9.20;;;5.30;;
21352;SDS011;10834;52.268;6.770;2023-12-04T09:43:18;8.20;;;5.20;;
21352;SDS011;10834;52.268;6.770;2023-12-04T09:46:03;7.67;;;4.50;;
21352;SDS011;10834;52.268;6.770;2023-12-04T09:48:47;8.00;;;4.73;;
21352;SDS011;10834;52.268;6.770;2023-12-04T09:51:34;9.83;;;5.50;;
21352;SDS011;10834;52.268;6.770;2023-12-04T09:54:21;7.50;;;4.40;;
21352;SDS011;10834;52.268;6.770;2023-12-04T09:57:05;7.40;;;4.57;;
21352;SDS011;10834;52.268;6.770;2023-12-04T09:59:49;6.57;;;4.43;;
21352;SDS011;10834;52.268;6.770;2023-12-04T10:02:36;7.30;;;5.20;;
21352;SDS011;10834;52.268;6.770;2023-12-04T10:05:20;6.53;;;4.93;;
21352;SDS011;10834;52.268;6.770;2023-12-04T10:08:04;7.67;;;5.10;;
21352;SDS011;10834;52.268;6.770;2023-12-04T10:10:48;6.53;;;4.50;;
21352;SDS011;10834;52.268;6.770;2023-12-04T10:13:33;6.37;;;4.30;;
21352;SDS011;10834;52.268;6.770;2023-12-04T10:16:36;6.90;;;4.33;;
21352;SDS011;10834;52.268;6.770;2023-12-04T10:22:07;8.10;;;5.13;;
21352;SDS011;10834;52.268;6.770;2023-12-04T10:24:55;7.23;;;4.93;;
21352;SDS011;10834;52.268;6.770;2023-12-04T10:27:39;5.60;;;4.50;;
21352;SDS011;10834;52.268;6.770;2023-12-04T10:30:27;6.30;;;4.47;;
21352;SDS011;10834;52.268;6.770;2023-12-04T10:33:12;7.73;;;5.27;;
21352;SDS011;10834;52.268;6.770;2023-12-04T10:35:57;7.37;;;4.77;;
21352;SDS011;10834;52.268;6.770;2023-12-04T10:38:41;7.57;;;4.83;;
21352;SDS011;10834;52.268;6.770;2023-12-04T10:41:26;7.90;;;4.93;;
21352;SDS011;10834;52.268;6.770;2023-12-04T10:44:15;8.33;;;5.10;;
21352;SDS011;10834;52.268;6.770;2023-12-04T10:47:01;8.20;;;4.13;;
21352;SDS011;10834;52.268;6.770;2023-12-04T10:49:46;7.33;;;4.80;;
21352;SDS011;10834;52.268;6.770;2023-12-04T10:52:35;7.53;;;4.67;;
21352;SDS011;10834;52.268;6.770;2023-12-04T10:55:24;8.27;;;4.87;;
21352;SDS011;10834;52.268;6.770;2023-12-04T10:58:09;7.17;;;4.63;;
21352;SDS011;10834;52.268;6.770;2023-12-04T11:00:55;7.47;;;4.77;;
21352;SDS011;10834;52.268;6.770;2023-12-04T11:03:44;5.70;;;3.80;;
21352;SDS011;10834;52.268;6.770;2023-12-04T11:06:33;7.60;;;5.13;;
21352;SDS011;10834;52.268;6.770;2023-12-04T11:09:21;10.10;;;4.63;;
21352;SDS011;10834;52.268;6.770;2023-12-04T11:12:11;7.67;;;5.27;;
21352;SDS011;10834;52.268;6.770;2023-12-04T11:15:00;8.47;;;5.10;;
21352;SDS011;10834;52.268;6.770;2023-12-04T11:17:49;6.43;;;4.37;;
21352;SDS011;10834;52.268;6.770;2023-12-04T11:20:44;9.70;;;6.30;;
21352;SDS011;10834;52.268;6.770;2023-12-04T11:23:34;5.47;;;4.27;;
21352;SDS011;10834;52.268;6.770;2023-12-04T11:26:19;14.63;;;7.37;;
21352;SDS011;10834;52.268;6.770;2023-12-04T11:29:05;9.33;;;5.90;;
21352;SDS011;10834;52.268;6.770;2023-12-04T11:31:52;9.00;;;4.87;;
21352;SDS011;10834;52.268;6.770;2023-12-04T11:34:36;8.27;;;6.53;;
21352;SDS011;10834;52.268;6.770;2023-12-04T11:37:21;10.47;;;5.23;;
21352;SDS011;10834;52.268;6.770;2023-12-04T11:40:07;7.83;;;4.50;;
21352;SDS011;10834;52.268;6.770;2023-12-04T11:42:53;6.53;;;4.63;;
21352;SDS011;10834;52.268;6.770;2023-12-04T11:45:39;7.77;;;5.03;;
21352;SDS011;10834;52.268;6.770;2023-12-04T11:48:23;6.83;;;5.07;;
21352;SDS011;10834;52.268;6.770;2023-12-04T11:51:08;9.13;;;5.50;;
21352;SDS011;10834;52.268;6.770;2023-12-04T11:53:52;7.17;;;4.83;;
21352;SDS011;10834;52.268;6.770;2023-12-04T11:56:37;7.53;;;4.97;;
21352;SDS011;10834;52.268;6.770;2023-12-04T11:59:22;7.27;;;4.60;;
21352;SDS011;10834;52.268;6.770;2023-12-04T12:02:07;8.13;;;5.17;;
21352;SDS011;10834;52.268;6.770;2023-12-04T12:04:53;8.83;;;5.37;;
21352;SDS011;10834;52.268;6.770;2023-12-04T12:07:38;8.17;;;5.67;;
21352;SDS011;10834;52.268;6.770;2023-12-04T12:10:22;7.47;;;5.07;;
21352;SDS011;10834;52.268;6.770;2023-12-04T12:13:06;7.27;;;4.93;;
21352;SDS011;10834;52.268;6.770;2023-12-04T12:15:51;10.93;;;6.60;;
21352;SDS011;10834;52.268;6.770;2023-12-04T12:18:36;5.20;;;4.20;;
21352;SDS011;10834;52.268;6.770;2023-12-04T12:21:21;6.50;;;4.40;;
21352;SDS011;10834;52.268;6.770;2023-12-04T12:24:05;6.67;;;4.30;;
21352;SDS011;10834;52.268;6.770;2023-12-04T12:26:50;5.80;;;4.33;;
21352;SDS011;10834;52.268;6.770;2023-12-04T12:29:35;9.23;;;6.43;;
21352;SDS011;10834;52.268;6.770;2023-12-04T12:32:19;8.00;;;6.43;;
21352;SDS011;10834;52.268;6.770;2023-12-04T12:35:04;7.63;;;5.40;;
21352;SDS011;10834;52.268;6.770;2023-12-04T12:37:48;8.67;;;4.87;;
21352;SDS011;10834;52.268;6.770;2023-12-04T12:40:36;7.27;;;4.63;;
21352;SDS011;10834;52.268;6.770;2023-12-04T12:43:20;8.07;;;4.27;;
21352;SDS011;10834;52.268;6.770;2023-12-04T12:46:07;8.30;;;5.60;;
21352;SDS011;10834;52.268;6.770;2023-12-04T12:48:51;7.80;;;5.03;;
21352;SDS011;10834;52.268;6.770;2023-12-04T12:51:36;8.07;;;5.03;;
21352;SDS011;10834;52.268;6.770;2023-12-04T12:54:23;8.17;;;4.67;;
21352;SDS011;10834;52.268;6.770;2023-12-04T12:57:08;6.20;;;4.90;;
21352;SDS011;10834;52.268;6.770;2023-12-04T12:59:53;6.43;;;4.77;;
21352;SDS011;10834;52.268;6.770;2023-12-04T13:02:37;7.47;;;4.83;;
21352;SDS011;10834;52.268;6.770;2023-12-04T13:05:21;9.10;;;5.20;;
21352;SDS011;10834;52.268;6.770;2023-12-04T13:08:05;8.27;;;5.33;;
21352;SDS011;10834;52.268;6.770;2023-12-04T13:10:49;6.33;;;4.33;;
21352;SDS011;10834;52.268;6.770;2023-12-04T13:13:34;7.77;;;4.57;;
21352;SDS011;10834;52.268;6.770;2023-12-04T13:16:18;6.07;;;3.90;;
21352;SDS011;10834;52.268;6.770;2023-12-04T13:19:03;8.40;;;4.53;;
21352;SDS011;10834;52.268;6.770;2023-12-04T13:21:47;11.57;;;5.97;;
21352;SDS011;10834;52.268;6.770;2023-12-04T13:24:31;16.77;;;6.60;;
21352;SDS011;10834;52.268;6.770;2023-12-04T13:27:15;11.60;;;6.87;;
21352;SDS011;10834;52.268;6.770;2023-12-04T13:29:59;11.80;;;7.33;;
21352;SDS011;10834;52.268;6.770;2023-12-04T13:32:43;7.40;;;5.77;;
21352;SDS011;10834;52.268;6.770;2023-12-04T13:35:27;9.20;;;5.80;;
21352;SDS011;10834;52.268;6.770;2023-12-04T13:38:12;7.97;;;5.17;;
21352;SDS011;10834;52.268;6.770;2023-12-04T13:40:58;8.17;;;4.27;;
21352;SDS011;10834;52.268;6.770;2023-12-04T13:43:43;6.30;;;4.33;;
21352;SDS011;10834;52.268;6.770;2023-12-04T13:46:33;6.70;;;4.37;;
21352;SDS011;10834;52.268;6.770;2023-12-04T13:49:18;12.37;;;5.13;;
21352;SDS011;10834;52.268;6.770;2023-12-04T13:52:03;7.43;;;4.93;;
21352;SDS011;10834;52.268;6.770;2023-12-04T13:54:51;6.37;;;4.10;;
21352;SDS011;10834;52.268;6.770;2023-12-04T13:57:38;8.70;;;5.50;;
21352;SDS011;10834;52.268;6.770;2023-12-04T14:00:38;9.87;;;5.83;;
21352;SDS011;10834;52.268;6.770;2023-12-04T14:03:25;8.77;;;4.37;;
21352;SDS011;10834;52.268;6.770;2023-12-04T14:06:09;8.47;;;4.60;;
21352;SDS011;10834;52.268;6.770;2023-12-04T14:08:55;7.73;;;4.87;;
21352;SDS011;10834;52.268;6.770;2023-12-04T14:11:43;8.50;;;5.10;;
21352;SDS011;10834;52.268;6.770;2023-12-04T14:14:28;8.30;;;6.00;;
21352;SDS011;10834;52.268;6.770;2023-12-04T14:17:12;7.33;;;5.20;;
21352;SDS011;10834;52.268;6.770;2023-12-04T14:19:57;7.37;;;4.87;;
21352;SDS011;10834;52.268;6.770;2023-12-04T14:22:42;7.60;;;5.10;;
21352;SDS011;10834;52.268;6.770;2023-12-04T14:25:27;8.60;;;5.30;;
21352;SDS011;10834;52.268;6.770;2023-12-04T14:28:11;9.20;;;5.30;;
21352;SDS011;10834;52.268;6.770;2023-12-04T14:30:55;7.80;;;5.87;;
21352;SDS011;10834;52.268;6.770;2023-12-04T14:33:39;6.50;;;5.27;;
21352;SDS011;10834;52.268;6.770;2023-12-04T14:36:23;6.20;;;4.77;;
21352;SDS011;10834;52.268;6.770;2023-12-04T14:39:08;6.50;;;5.17;;
21352;SDS011;10834;52.268;6.770;2023-12-04T14:41:54;6.93;;;4.80;;
21352;SDS011;10834;52.268;6.770;2023-12-04T14:44:38;7.27;;;4.77;;
21352;SDS011;10834;52.268;6.770;2023-12-04T14:47:22;8.60;;;5.77;;
21352;SDS011;10834;52.268;6.770;2023-12-04T14:50:06;7.57;;;4.97;;
21352;SDS011;10834;52.268;6.770;2023-12-04T14:52:51;7.07;;;5.13;;
21352;SDS011;10834;52.268;6.770;2023-12-04T14:55:38;7.53;;;5.20;;
21352;SDS011;10834;52.268;6.770;2023-12-04T14:58:42;7.53;;;4.77;;
21352;SDS011;10834;52.268;6.770;2023-12-04T15:01:29;8.40;;;6.20;;
21352;SDS011;10834;52.268;6.770;2023-12-04T15:04:23;7.37;;;5.20;;
21352;SDS011;10834;52.268;6.770;2023-12-04T15:07:25;8.17;;;5.20;;
21352;SDS011;10834;52.268;6.770;2023-12-04T15:10:12;9.73;;;6.23;;
21352;SDS011;10834;52.268;6.770;2023-12-04T15:13:32;6.73;;;5.53;;
21352;SDS011;10834;52.268;6.770;2023-12-04T15:16:39;10.27;;;5.80;;
21352;SDS011;10834;52.268;6.770;2023-12-04T15:19:30;11.03;;;5.97;;
21352;SDS011;10834;52.268;6.770;2023-12-04T15:22:28;8.80;;;6.10;;
21352;SDS011;10834;52.268;6.770;2023-12-04T15:25:12;9.63;;;6.60;;
21352;SDS011;10834;52.268;6.770;2023-12-04T15:27:57;8.13;;;5.33;;
21352;SDS011;10834;52.268;6.770;2023-12-04T15:30:41;8.00;;;5.93;;
21352;SDS011;10834;52.268;6.770;2023-12-04T15:33:25;7.83;;;5.80;;
21352;SDS011;10834;52.268;6.770;2023-12-04T15:36:11;8.07;;;5.83;;
21352;SDS011;10834;52.268;6.770;2023-12-04T15:38:55;10.40;;;6.53;;
21352;SDS011;10834;52.268;6.770;2023-12-04T15:41:39;8.30;;;5.90;;
21352;SDS011;10834;52.268;6.770;2023-12-04T15:44:24;9.97;;;6.17;;
21352;SDS011;10834;52.268;6.770;2023-12-04T15:47:08;7.77;;;5.47;;
21352;SDS011;10834;52.268;6.770;2023-12-04T15:49:53;8.47;;;6.73;;
21352;SDS011;10834;52.268;6.770;2023-12-04T15:52:37;9.63;;;5.67;;
21352;SDS011;10834;52.268;6.770;2023-12-04T15:55:23;9.67;;;6.10;;
21352;SDS011;10834;52.268;6.770;2023-12-04T15:58:10;10.53;;;6.13;;
21352;SDS011;10834;52.268;6.770;2023-12-04T16:00:54;8.43;;;5.50;;
21352;SDS011;10834;52.268;6.770;2023-12-04T16:03:38;12.03;;;6.13;;
21352;SDS011;10834;52.268;6.770;2023-12-04T16:06:23;11.23;;;7.23;;
21352;SDS011;10834;52.268;6.770;2023-12-04T16:09:07;9.63;;;5.93;;
21352;SDS011;10834;52.268;6.770;2023-12-04T16:11:57;9.53;;;5.97;;
21352;SDS011;10834;52.268;6.770;2023-12-04T16:14:41;8.77;;;6.20;;
21352;SDS011;10834;52.268;6.770;2023-12-04T16:17:25;10.77;;;6.97;;
21352;SDS011;10834;52.268;6.770;2023-12-04T16:20:09;10.17;;;6.17;;
21352;SDS011;10834;52.268;6.770;2023-12-04T16:22:54;9.43;;;6.07;;
21352;SDS011;10834;52.268;6.770;2023-12-04T16:25:38;9.20;;;6.33;;